createdAt,value
2018-02-25T00:02:12.300Z,7.20
2018-02-25T00:04:40.566Z,7.47
2018-02-25T00:07:09.633Z,6.80
2018-02-25T00:09:37.907Z,7.60
2018-02-25T00:12:06.166Z,8.85
2018-02-25T00:14:34.454Z,9.05
2018-02-25T00:17:02.713Z,8.15
2018-02-25T00:19:30.998Z,8.48
2018-02-25T00:21:59.253Z,8.40
2018-02-25T00:24:27.533Z,8.57
2018-02-25T00:26:55.798Z,8.40
2018-02-25T00:29:24.094Z,8.73
2018-02-25T00:31:52.360Z,8.13
2018-02-25T00:34:21.410Z,7.62
2018-02-25T00:36:49.668Z,7.72
2018-02-25T00:39:17.958Z,9.15
2018-02-25T00:41:46.220Z,8.85
2018-02-25T00:44:15.268Z,8.65
2018-02-25T00:46:43.523Z,9.52
2018-02-25T00:49:12.573Z,9.20
2018-02-25T00:51:40.873Z,7.95
2018-02-25T00:54:09.154Z,8.00
2018-02-25T00:56:37.417Z,8.60
2018-02-25T00:59:05.690Z,9.65
2018-02-25T01:01:33.947Z,8.02
2018-02-25T01:04:02.221Z,7.45
2018-02-25T01:06:31.209Z,7.85
2018-02-25T01:08:59.494Z,6.60
2018-02-25T01:11:27.760Z,8.05
2018-02-25T01:13:56.046Z,9.20
2018-02-25T01:16:24.318Z,7.80
2018-02-25T01:18:53.374Z,8.23
2018-02-25T01:21:21.632Z,7.55
2018-02-25T01:23:49.913Z,7.40
2018-02-25T01:26:18.184Z,9.18
2018-02-25T01:28:46.453Z,7.97
2018-02-25T01:31:14.740Z,13.18
2018-02-25T01:33:43.012Z,24.33
2018-02-25T01:36:11.384Z,7.50
2018-02-25T01:38:39.659Z,9.40
2018-02-25T01:41:07.928Z,29.12
2018-02-25T01:43:36.196Z,9.90
2018-02-25T01:46:05.245Z,7.82
2018-02-25T01:48:33.533Z,8.38
2018-02-25T01:51:05.389Z,8.20
2018-02-25T01:53:33.665Z,22.37
2018-02-25T01:56:02.712Z,10.88
2018-02-25T01:58:30.998Z,13.90
2018-02-25T02:00:59.280Z,7.28
2018-02-25T02:03:27.558Z,8.73
2018-02-25T02:05:55.838Z,9.77
2018-02-25T02:08:24.093Z,7.57
2018-02-25T02:10:53.134Z,7.37
2018-02-25T02:13:21.396Z,7.18
2018-02-25T02:15:50.440Z,8.27
2018-02-25T02:18:18.693Z,7.00
2018-02-25T02:20:47.743Z,7.75
2018-02-25T02:23:16.015Z,7.65
2018-02-25T02:25:44.292Z,6.57
2018-02-25T02:28:12.557Z,12.18
2018-02-25T02:30:41.050Z,16.20
2018-02-25T02:33:10.098Z,8.38
2018-02-25T02:35:38.369Z,6.80
2018-02-25T02:38:06.649Z,7.75
2018-02-25T02:40:34.905Z,9.15
2018-02-25T02:43:03.194Z,7.18
2018-02-25T02:45:31.480Z,25.67
2018-02-25T02:47:59.802Z,7.32
2018-02-25T02:50:28.106Z,7.28
2018-02-25T02:52:56.400Z,10.55
2018-02-25T02:55:24.661Z,6.55
2018-02-25T02:57:53.713Z,8.80
2018-02-25T03:00:21.977Z,7.00
2018-02-25T03:02:50.249Z,7.00
2018-02-25T03:05:19.272Z,7.50
2018-02-25T03:07:47.565Z,7.57
2018-02-25T03:10:15.830Z,7.78
2018-02-25T03:12:44.107Z,8.85
2018-02-25T03:15:13.150Z,34.70
2018-02-25T03:17:41.422Z,10.30
2018-02-25T03:20:09.685Z,7.07
2018-02-25T03:22:38.721Z,11.10
2018-02-25T03:25:06.982Z,14.45
2018-02-25T03:27:36.033Z,25.05
2018-02-25T03:30:04.307Z,14.02
2018-02-25T03:32:32.585Z,32.50
2018-02-25T03:35:00.857Z,26.25
2018-02-25T03:37:29.904Z,28.27
2018-02-25T03:39:58.172Z,13.57
2018-02-25T03:42:26.457Z,44.40
2018-02-25T03:44:54.735Z,7.72
2018-02-25T03:47:23.774Z,7.80
2018-02-25T03:49:52.033Z,6.15
2018-02-25T03:52:20.320Z,7.80
2018-02-25T03:54:48.614Z,37.80
2018-02-25T03:57:16.876Z,43.83
2018-02-25T03:59:45.928Z,46.25
2018-02-25T04:02:14.194Z,6.25
2018-02-25T04:04:42.468Z,6.40
2018-02-25T04:07:11.505Z,9.70
2018-02-25T04:09:39.784Z,8.10
2018-02-25T04:12:08.058Z,24.42
2018-02-25T04:14:36.340Z,9.55
2018-02-25T04:17:05.376Z,6.60
2018-02-25T04:19:33.674Z,7.55
2018-02-25T04:22:01.977Z,7.87
2018-02-25T04:24:30.256Z,7.37
2018-02-25T04:26:58.559Z,7.00
2018-02-25T04:29:26.830Z,13.43
2018-02-25T04:31:55.100Z,9.93
2018-02-25T04:34:23.395Z,76.07
2018-02-25T04:36:51.684Z,116.00
2018-02-25T04:39:20.000Z,122.82
2018-02-25T04:41:48.290Z,111.35
2018-02-25T04:44:16.577Z,119.60
2018-02-25T04:46:44.856Z,99.03
2018-02-25T04:49:13.163Z,107.32
2018-02-25T04:51:41.690Z,161.55
2018-02-25T04:54:10.764Z,172.25
2018-02-25T04:56:39.028Z,90.80
2018-02-25T04:59:07.329Z,204.18
2018-02-25T05:01:35.609Z,179.32
2018-02-25T05:04:03.902Z,163.87
2018-02-25T05:06:32.180Z,217.32
2018-02-25T05:09:00.470Z,226.95
2018-02-25T05:11:28.739Z,233.02
2018-02-25T05:13:57.034Z,154.75
2018-02-25T05:16:25.312Z,177.82
2018-02-25T05:18:53.609Z,192.45
2018-02-25T05:21:22.796Z,173.75
2018-02-25T05:23:52.000Z,168.52
2018-02-25T05:26:21.053Z,194.37
2018-02-25T05:28:49.350Z,178.93
2018-02-25T05:31:17.624Z,160.30
2018-02-25T05:33:45.917Z,126.82
2018-02-25T05:36:14.215Z,174.77
2018-02-25T05:38:42.510Z,146.62
2018-02-25T05:41:10.794Z,166.90
2018-02-25T05:43:39.084Z,172.75
2018-02-25T05:46:07.364Z,124.65
2018-02-25T05:48:35.648Z,67.37
2018-02-25T05:51:03.941Z,179.23
2018-02-25T05:53:32.232Z,176.85
2018-02-25T05:56:00.525Z,166.02
2018-02-25T05:58:28.800Z,194.82
2018-02-25T06:00:57.077Z,213.10
2018-02-25T06:03:26.180Z,226.15
2018-02-25T06:05:54.469Z,273.00
2018-02-25T06:08:22.753Z,252.82
2018-02-25T06:10:51.032Z,233.95
2018-02-25T06:13:19.312Z,267.90
2018-02-25T06:15:47.588Z,283.15
2018-02-25T06:18:16.642Z,244.87
2018-02-25T06:20:44.926Z,262.00
2018-02-25T06:23:13.222Z,250.95
2018-02-25T06:25:41.498Z,274.83
2018-02-25T06:28:09.780Z,256.80
2018-02-25T06:30:38.055Z,301.98
2018-02-25T06:33:06.350Z,246.02
2018-02-25T06:35:34.637Z,232.75
2018-02-25T06:38:02.912Z,198.30
2018-02-25T06:40:31.218Z,210.88
2018-02-25T06:42:59.501Z,211.12
2018-02-25T06:45:27.788Z,223.05
2018-02-25T06:47:56.071Z,206.07
2018-02-25T06:50:24.370Z,213.77
2018-02-25T06:52:52.648Z,263.98
2018-02-25T06:55:20.953Z,277.95
2018-02-25T06:57:49.219Z,298.33
2018-02-25T07:00:17.504Z,271.87
2018-02-25T07:02:46.540Z,265.62
2018-02-25T07:05:15.051Z,232.10
2018-02-25T07:07:43.317Z,211.93
2018-02-25T07:10:11.608Z,204.90
2018-02-25T07:12:39.889Z,121.87
2018-02-25T07:15:08.186Z,189.70
2018-02-25T07:17:37.385Z,109.22
2018-02-25T07:20:05.672Z,73.25
2018-02-25T07:22:33.945Z,50.67
2018-02-25T07:25:02.229Z,18.73
2018-02-25T07:27:31.278Z,9.40
2018-02-25T07:29:59.548Z,8.38
2018-02-25T07:32:27.827Z,7.32
2018-02-25T07:34:56.116Z,8.50
2018-02-25T07:37:24.381Z,8.35
2018-02-25T07:39:53.434Z,9.48
2018-02-25T07:42:21.790Z,8.90
2018-02-25T07:44:49.989Z,7.75
2018-02-25T07:47:18.254Z,7.55
2018-02-25T07:49:54.945Z,7.95
2018-02-25T07:52:23.966Z,8.52
2018-02-25T07:54:52.231Z,7.57
2018-02-25T07:57:21.294Z,7.75
2018-02-25T07:59:49.570Z,6.45
2018-02-25T08:02:17.837Z,6.70
2018-02-25T08:04:46.112Z,6.97
2018-02-25T08:07:15.150Z,6.75
2018-02-25T08:09:53.130Z,6.45
2018-02-25T08:12:22.170Z,5.60
2018-02-25T08:14:50.494Z,6.85
2018-02-25T08:17:18.760Z,6.28
2018-02-25T08:19:47.038Z,6.05
2018-02-25T08:22:15.307Z,5.50
2018-02-25T08:24:43.580Z,4.37
2018-02-25T08:27:12.622Z,4.95
2018-02-25T08:29:40.910Z,6.72
2018-02-25T08:32:09.181Z,4.93
2018-02-25T08:34:37.453Z,3.47
2018-02-25T08:37:06.488Z,3.87
2018-02-25T08:39:34.765Z,2.95
2018-02-25T08:42:03.024Z,4.20
2018-02-25T08:44:32.056Z,3.33
2018-02-25T08:47:00.326Z,2.83
2018-02-25T08:49:29.369Z,3.10
2018-02-25T08:51:57.629Z,3.22
2018-02-25T08:54:25.898Z,3.40
2018-02-25T08:56:54.925Z,3.20
2018-02-25T08:59:23.205Z,3.35
2018-02-25T09:01:52.241Z,3.80
2018-02-25T09:04:20.766Z,3.50
2018-02-25T09:06:49.045Z,2.97
2018-02-25T09:09:17.326Z,3.80
2018-02-25T09:11:45.597Z,3.80
2018-02-25T09:14:13.876Z,3.60
2018-02-25T09:16:42.152Z,3.65
2018-02-25T09:19:10.431Z,4.25
2018-02-25T09:21:39.469Z,3.80
2018-02-25T09:24:07.752Z,4.60
2018-02-25T09:26:36.693Z,3.67
2018-02-25T09:29:04.970Z,3.90
2018-02-25T09:31:33.587Z,5.78
2018-02-25T09:34:01.848Z,5.95
2018-02-25T09:36:30.126Z,6.80
2018-02-25T09:38:58.401Z,5.85
2018-02-25T09:41:26.730Z,4.87
2018-02-25T09:43:55.012Z,6.53
2018-02-25T09:46:23.281Z,6.32
2018-02-25T09:48:51.544Z,5.15
2018-02-25T09:51:19.825Z,6.62
2018-02-25T09:53:48.864Z,7.60
2018-02-25T09:56:17.139Z,4.75
2018-02-25T09:58:45.404Z,7.15
2018-02-25T10:01:14.455Z,7.07
2018-02-25T10:03:42.739Z,6.50
2018-02-25T10:06:11.004Z,6.07
2018-02-25T10:08:39.277Z,5.62
2018-02-25T10:11:07.674Z,6.90
2018-02-25T10:13:35.948Z,6.35
2018-02-25T10:16:04.993Z,6.05
2018-02-25T10:18:33.279Z,6.40
2018-02-25T10:21:01.557Z,6.35
2018-02-25T10:23:29.819Z,7.43
2018-02-25T10:25:58.858Z,4.53
2018-02-25T10:28:27.888Z,4.93
2018-02-25T10:30:56.168Z,4.95
2018-02-25T10:33:24.434Z,5.12
2018-02-25T10:35:52.714Z,4.80
2018-02-25T10:38:20.969Z,4.10
2018-02-25T10:40:49.236Z,5.55
2018-02-25T10:43:17.508Z,4.95
2018-02-25T10:45:45.782Z,5.75
2018-02-25T10:48:14.045Z,6.45
2018-02-25T10:50:43.753Z,4.85
2018-02-25T10:53:12.784Z,5.28
2018-02-25T10:55:41.060Z,4.80
2018-02-25T10:58:28.945Z,4.70
2018-02-25T11:01:03.360Z,4.95
2018-02-25T11:03:31.637Z,5.35
2018-02-25T11:06:00.165Z,4.43
2018-02-25T11:08:28.435Z,4.47
2018-02-25T11:10:56.704Z,4.00
2018-02-25T11:13:25.797Z,6.75
2018-02-25T11:16:07.863Z,5.70
2018-02-25T11:18:37.530Z,4.62
2018-02-25T11:21:06.573Z,5.85
2018-02-25T11:23:34.841Z,4.53
2018-02-25T11:26:05.238Z,5.43
2018-02-25T11:28:34.035Z,5.15
2018-02-25T11:31:02.303Z,4.53
2018-02-25T11:33:30.572Z,6.25
2018-02-25T11:35:59.618Z,4.95
2018-02-25T11:38:27.896Z,6.12
2018-02-25T11:40:56.169Z,5.12
2018-02-25T11:43:24.435Z,4.10
2018-02-25T11:45:53.530Z,4.50
2018-02-25T11:48:21.796Z,4.53
2018-02-25T11:50:50.068Z,4.65
2018-02-25T11:53:18.348Z,3.90
2018-02-25T11:55:47.375Z,3.60
2018-02-25T11:58:15.648Z,4.05
2018-02-25T12:00:43.913Z,4.30
2018-02-25T12:03:12.170Z,4.12
2018-02-25T12:05:40.450Z,4.82
2018-02-25T12:08:08.721Z,5.40
2018-02-25T12:10:36.989Z,3.78
2018-02-25T12:13:05.264Z,5.50
2018-02-25T12:15:33.546Z,6.95
2018-02-25T12:18:01.800Z,6.18
2018-02-25T12:20:30.846Z,4.30
2018-02-25T12:22:59.114Z,4.97
2018-02-25T12:25:27.377Z,4.57
2018-02-25T12:27:55.667Z,3.80
2018-02-25T12:30:23.925Z,5.37
2018-02-25T12:32:52.201Z,3.42
2018-02-25T12:35:20.465Z,4.85
2018-02-25T12:37:48.728Z,3.42
2018-02-25T12:40:17.757Z,4.30
2018-02-25T12:42:46.033Z,3.62
2018-02-25T12:45:15.048Z,4.95
2018-02-25T12:47:43.312Z,4.45
2018-02-25T12:50:12.328Z,4.80
2018-02-25T12:52:40.603Z,4.70
2018-02-25T12:55:08.852Z,5.85
2018-02-25T12:57:37.119Z,4.40
2018-02-25T13:00:06.156Z,5.05
2018-02-25T13:02:34.430Z,5.60
2018-02-25T13:05:02.837Z,4.20
2018-02-25T13:07:31.103Z,3.75
2018-02-25T13:09:59.372Z,4.10
2018-02-25T13:12:27.637Z,3.50
2018-02-25T13:14:56.662Z,3.95
2018-02-25T13:17:24.923Z,4.25
2018-02-25T13:19:53.951Z,3.97
2018-02-25T13:22:22.234Z,3.65
2018-02-25T13:24:51.270Z,3.85
2018-02-25T13:27:19.543Z,5.30
2018-02-25T13:29:48.336Z,7.03
2018-02-25T13:32:16.605Z,3.60
2018-02-25T13:34:45.640Z,5.05
2018-02-25T13:37:13.900Z,3.40
2018-02-25T13:39:43.324Z,3.35
2018-02-25T13:42:12.374Z,3.70
2018-02-25T13:44:40.625Z,6.78
2018-02-25T13:47:08.897Z,6.15
2018-02-25T13:49:37.937Z,4.65
2018-02-25T13:52:06.223Z,5.43
2018-02-25T13:54:34.485Z,7.30
2018-02-25T13:57:03.525Z,3.83
2018-02-25T13:59:31.781Z,4.05
2018-02-25T14:02:00.831Z,4.85
2018-02-25T14:04:29.101Z,4.95
2018-02-25T14:06:57.379Z,5.05
2018-02-25T14:09:25.757Z,4.28
2018-02-25T14:11:54.028Z,4.80
2018-02-25T14:14:23.074Z,5.00
2018-02-25T14:16:51.362Z,4.35
2018-02-25T14:19:19.646Z,5.28
2018-02-25T14:21:47.918Z,4.57
2018-02-25T14:24:16.953Z,3.75
2018-02-25T14:26:45.221Z,4.60
2018-02-25T14:29:13.506Z,4.10
2018-02-25T14:31:41.773Z,3.95
2018-02-25T14:34:10.830Z,4.93
2018-02-25T14:36:39.093Z,4.28
2018-02-25T14:39:07.370Z,4.50
2018-02-25T14:41:35.635Z,4.18
2018-02-25T14:44:03.917Z,4.20
2018-02-25T14:46:32.195Z,4.65
2018-02-25T14:49:00.466Z,4.85
2018-02-25T14:51:28.732Z,4.40
2018-02-25T14:53:57.013Z,5.30
2018-02-25T14:56:25.273Z,4.25
2018-02-25T14:58:54.329Z,4.78
2018-02-25T15:01:22.596Z,5.32
2018-02-25T15:03:50.874Z,6.62
2018-02-25T15:06:19.144Z,5.15
2018-02-25T15:08:54.139Z,6.43
2018-02-25T15:11:22.638Z,5.25
2018-02-25T15:13:50.920Z,5.55
2018-02-25T15:16:19.193Z,7.10
2018-02-25T15:18:47.477Z,6.95
2018-02-25T15:21:16.509Z,5.35
2018-02-25T15:23:44.824Z,6.70
2018-02-25T15:26:13.094Z,6.10
2018-02-25T15:28:41.376Z,6.12
2018-02-25T15:31:09.652Z,5.57
2018-02-25T15:33:37.936Z,5.80
2018-02-25T15:36:06.218Z,7.97
2018-02-25T15:38:34.485Z,7.35
2018-02-25T15:41:03.539Z,11.25
2018-02-25T15:43:31.828Z,7.97
2018-02-25T15:46:00.156Z,9.43
2018-02-25T15:48:28.402Z,7.60
2018-02-25T15:50:56.684Z,8.48
2018-02-25T15:53:24.946Z,10.23
2018-02-25T15:55:54.006Z,10.02
2018-02-25T15:58:22.308Z,8.63
2018-02-25T16:00:50.596Z,9.68
2018-02-25T16:03:18.882Z,9.35
2018-02-25T16:05:47.143Z,8.90
2018-02-25T16:08:15.430Z,7.97
2018-02-25T16:10:43.713Z,10.05
2018-02-25T16:13:11.985Z,9.82
2018-02-25T16:15:40.265Z,8.82
2018-02-25T16:18:09.304Z,8.57
2018-02-25T16:20:37.564Z,8.02
2018-02-25T16:23:05.856Z,8.40
2018-02-25T16:25:34.117Z,8.15
2018-02-25T16:28:03.166Z,7.70
2018-02-25T16:30:32.369Z,7.65
2018-02-25T16:33:00.648Z,8.30
2018-02-25T16:35:28.940Z,8.70
2018-02-25T16:37:57.249Z,7.15
2018-02-25T16:40:26.409Z,7.68
2018-02-25T16:42:54.684Z,7.75
2018-02-25T16:45:22.953Z,7.85
2018-02-25T16:47:51.226Z,7.35
2018-02-25T16:50:19.493Z,8.00
2018-02-25T16:52:47.759Z,7.35
2018-02-25T16:55:16.792Z,7.12
2018-02-25T16:57:45.065Z,6.78
2018-02-25T17:00:13.657Z,7.93
2018-02-25T17:02:41.949Z,7.53
2018-02-25T17:05:10.214Z,7.43
2018-02-25T17:07:38.503Z,6.57
2018-02-25T17:10:07.544Z,7.12
2018-02-25T17:12:35.812Z,7.12
2018-02-25T17:15:04.950Z,7.62
2018-02-25T17:17:33.222Z,9.07
2018-02-25T17:20:01.492Z,8.25
2018-02-25T17:22:30.525Z,7.95
2018-02-25T17:24:58.797Z,7.20
2018-02-25T17:27:27.066Z,8.43
2018-02-25T17:29:56.103Z,7.37
2018-02-25T17:32:24.391Z,7.82
2018-02-25T17:34:52.679Z,8.13
2018-02-25T17:37:20.950Z,7.87
2018-02-25T17:39:49.980Z,8.00
2018-02-25T17:42:18.257Z,7.53
2018-02-25T17:44:46.525Z,7.70
2018-02-25T17:47:15.548Z,7.43
2018-02-25T17:49:43.825Z,8.15
2018-02-25T17:52:12.865Z,7.90
2018-02-25T17:54:41.149Z,9.93
2018-02-25T17:57:09.442Z,8.35
2018-02-25T17:59:37.742Z,9.40
2018-02-25T18:02:06.014Z,8.57
2018-02-25T18:04:34.290Z,8.02
2018-02-25T18:07:02.562Z,8.20
2018-02-25T18:09:31.605Z,8.07
2018-02-25T18:11:59.869Z,7.70
2018-02-25T18:14:28.148Z,8.02
2018-02-25T18:16:57.198Z,8.00
2018-02-25T18:19:25.461Z,8.38
2018-02-25T18:21:53.728Z,13.15
2018-02-25T18:24:22.773Z,11.05
2018-02-25T18:26:51.050Z,8.38
2018-02-25T18:29:19.324Z,9.80
2018-02-25T18:31:48.530Z,10.27
2018-02-25T18:34:16.803Z,9.95
2018-02-25T18:36:45.827Z,8.65
2018-02-25T18:39:14.104Z,8.82
2018-02-25T18:41:43.138Z,9.25
2018-02-25T18:44:11.405Z,10.05
2018-02-25T18:46:39.668Z,13.18
2018-02-25T18:49:07.945Z,10.63
2018-02-25T18:51:36.212Z,10.32
2018-02-25T18:54:04.493Z,10.65
2018-02-25T18:56:32.780Z,12.18
2018-02-25T18:59:01.048Z,9.35
2018-02-25T19:01:29.330Z,9.88
2018-02-25T19:03:59.289Z,9.85
2018-02-25T19:06:27.553Z,9.45
2018-02-25T19:08:55.844Z,11.25
2018-02-25T19:11:24.103Z,10.18
2018-02-25T19:13:53.145Z,11.05
2018-02-25T19:16:21.395Z,8.98
2018-02-25T19:18:50.500Z,11.20
2018-02-25T19:21:18.721Z,12.30
2018-02-25T19:23:46.992Z,10.63
2018-02-25T19:26:15.258Z,11.05
2018-02-25T19:28:44.291Z,10.20
2018-02-25T19:31:12.565Z,11.00
2018-02-25T19:33:41.606Z,10.75
2018-02-25T19:36:15.316Z,11.43
2018-02-25T19:38:49.079Z,9.73
2018-02-25T19:41:22.847Z,10.68
2018-02-25T19:43:51.126Z,11.20
2018-02-25T19:46:19.442Z,10.75
2018-02-25T19:48:47.735Z,10.45
2018-02-25T19:51:16.006Z,10.00
2018-02-25T19:53:44.302Z,11.25
2018-02-25T19:56:12.563Z,11.27
2018-02-25T19:58:40.831Z,11.05
2018-02-25T20:01:09.886Z,11.77
2018-02-25T20:03:38.149Z,10.55
2018-02-25T20:06:06.452Z,11.38
2018-02-25T20:08:35.617Z,11.07
2018-02-25T20:11:03.906Z,12.00
2018-02-25T20:13:32.163Z,11.05
2018-02-25T20:16:00.439Z,13.48
2018-02-25T20:18:28.709Z,11.88
2018-02-25T20:20:56.976Z,11.20
2018-02-25T20:23:26.017Z,11.85
2018-02-25T20:25:54.290Z,11.00
2018-02-25T20:28:22.552Z,12.52
2018-02-25T20:30:51.593Z,11.98
2018-02-25T20:33:19.861Z,11.55
2018-02-25T20:35:48.128Z,11.20
2018-02-25T20:38:16.417Z,10.80
2018-02-25T20:40:45.452Z,11.40
2018-02-25T20:43:13.720Z,10.77
2018-02-25T20:45:42.764Z,11.38
2018-02-25T20:48:11.029Z,12.23
2018-02-25T20:50:39.296Z,11.73
2018-02-25T20:53:08.340Z,11.70
2018-02-25T20:55:36.613Z,10.85
2018-02-25T20:58:04.881Z,10.95
2018-02-25T21:00:33.921Z,10.13
2018-02-25T21:03:02.961Z,11.05
2018-02-25T21:05:31.244Z,10.38
2018-02-25T21:07:59.505Z,12.32
2018-02-25T21:10:27.781Z,11.35
2018-02-25T21:12:56.053Z,11.43
2018-02-25T21:15:25.088Z,10.18
2018-02-25T21:17:56.497Z,10.23
2018-02-25T21:20:24.773Z,10.95
2018-02-25T21:22:53.042Z,10.43
2018-02-25T21:25:21.312Z,9.90
2018-02-25T21:27:49.582Z,10.18
2018-02-25T21:30:17.860Z,10.25
2018-02-25T21:32:46.940Z,11.52
2018-02-25T21:35:15.168Z,9.10
2018-02-25T21:37:43.432Z,9.25
2018-02-25T21:40:12.800Z,8.75
2018-02-25T21:42:41.056Z,9.68
2018-02-25T21:45:09.338Z,9.50
2018-02-25T21:47:37.600Z,8.85
2018-02-25T21:50:05.864Z,9.23
2018-02-25T21:52:34.120Z,9.20
2018-02-25T21:55:02.433Z,10.40
2018-02-25T21:57:36.218Z,9.80
2018-02-25T22:00:09.919Z,9.82
2018-02-25T22:02:44.431Z,8.90
2018-02-25T22:05:12.736Z,10.35
2018-02-25T22:07:40.973Z,8.85
2018-02-25T22:10:09.251Z,10.38
2018-02-25T22:12:37.522Z,9.15
2018-02-25T22:15:05.789Z,10.35
2018-02-25T22:17:34.062Z,10.90
2018-02-25T22:20:03.201Z,10.48
2018-02-25T22:22:31.485Z,8.52
2018-02-25T22:25:00.525Z,9.95
2018-02-25T22:27:28.793Z,10.05
2018-02-25T22:29:57.070Z,9.90
2018-02-25T22:32:25.345Z,9.85
2018-02-25T22:34:54.400Z,9.40
2018-02-25T22:37:22.796Z,9.23
2018-02-25T22:39:51.056Z,9.82
2018-02-25T22:42:19.336Z,9.65
2018-02-25T22:44:47.600Z,8.68
2018-02-25T22:47:16.646Z,9.23
2018-02-25T22:49:44.917Z,9.75
2018-02-25T22:52:13.180Z,9.45
2018-02-25T22:54:42.217Z,10.00
2018-02-25T22:57:10.490Z,9.85
2018-02-25T22:59:39.516Z,9.00
2018-02-25T23:02:07.788Z,9.85
2018-02-25T23:04:36.827Z,9.80
2018-02-25T23:07:05.104Z,10.60
2018-02-25T23:09:33.370Z,10.05
2018-02-25T23:12:01.649Z,9.27
2018-02-25T23:14:30.675Z,9.63
2018-02-25T23:16:58.978Z,10.27
2018-02-25T23:19:27.257Z,10.07
2018-02-25T23:21:55.532Z,10.10
2018-02-25T23:24:23.801Z,10.52
2018-02-25T23:26:52.862Z,10.55
2018-02-25T23:29:21.122Z,10.70
2018-02-25T23:31:49.414Z,10.98
2018-02-25T23:34:17.682Z,9.95
2018-02-25T23:36:46.724Z,9.98
2018-02-25T23:39:14.992Z,9.55
2018-02-25T23:41:43.286Z,10.10
2018-02-25T23:44:11.547Z,10.45
2018-02-25T23:46:40.612Z,10.35
2018-02-25T23:49:08.894Z,11.23
2018-02-25T23:51:37.170Z,9.27
2018-02-25T23:54:05.449Z,9.38
2018-02-25T23:56:33.721Z,10.30
2018-02-25T23:59:01.983Z,9.68
